Time;durP1;ratioP1;P1;durP2;ratioP2;P2;SDS_P1;SDS_P2;PMS_P1;PMS_P2;Temp;Humidity;BMP_temperature;BMP_pressure;BME280_temperature;BME280_humidity;BME280_pressure;Samples;Min_cycle;Max_cycle;Signal;HPM_P1;HPM_P2
2022/11/22 00:00:36;;;;;;;0.10;0.10;;;2.30;99.90;;;;;;1754812;28;20497;-70
2022/11/22 00:01:28;;;;;;;0.00;0.00;;;2.30;99.90;;;;;;1754787;28;20197;-70
2022/11/22 00:02:19;;;;;;;0.10;0.10;;;2.30;99.90;;;;;;1753710;28;20487;-69
2022/11/22 00:03:11;;;;;;;0.00;0.00;;;2.30;99.90;;;;;;1754710;28;20618;-69
2022/11/22 00:04:01;;;;;;;0.10;0.10;;;2.40;99.90;;;;;;1759150;28;20197;-69
2022/11/22 00:04:55;;;;;;;0.00;0.00;;;2.40;99.90;;;;;;1757874;28;20312;-69
2022/11/22 00:05:46;;;;;;;0.00;0.00;;;2.30;99.90;;;;;;1754400;28;20895;-69
2022/11/22 00:06:38;;;;;;;0.00;0.00;;;2.30;99.90;;;;;;1754366;28;20670;-70
2022/11/22 00:07:29;;;;;;;0.00;0.00;;;2.40;99.90;;;;;;1760157;28;20296;-70
2022/11/22 00:08:20;;;;;;;0.00;0.00;;;2.40;99.90;;;;;;1760118;28;20197;-70
2022/11/22 00:09:11;;;;;;;0.00;0.00;;;2.50;99.90;;;;;;1760658;28;20459;-70
2022/11/22 00:10:07;;;;;;;0.10;0.10;;;2.40;99.90;;;;;;1760450;28;20193;-70
2022/11/22 00:10:58;;;;;;;0.15;0.15;;;2.40;99.90;;;;;;1751069;28;20615;-70
2022/11/22 00:11:50;;;;;;;0.00;0.00;;;2.40;99.90;;;;;;1754307;28;20315;-70
2022/11/22 00:12:41;;;;;;;0.00;0.00;;;2.40;99.90;;;;;;1761484;28;20208;-70
2022/11/22 00:13:33;;;;;;;0.00;0.00;;;2.40;99.90;;;;;;1758842;28;20242;-69
2022/11/22 00:14:24;;;;;;;0.10;0.10;;;2.40;99.90;;;;;;1754555;28;20229;-70
2022/11/22 00:15:16;;;;;;;0.00;0.00;;;2.40;99.90;;;;;;1755175;28;20201;-69
2022/11/22 00:16:07;;;;;;;0.03;0.03;;;2.50;99.90;;;;;;1754398;28;20460;-70
2022/11/22 00:16:59;;;;;;;0.00;0.00;;;2.50;99.90;;;;;;1755543;28;20842;-70
2022/11/22 00:17:49;;;;;;;0.00;0.00;;;2.50;99.90;;;;;;1761644;28;20231;-70
2022/11/22 00:18:41;;;;;;;0.10;0.10;;;2.50;99.90;;;;;;1758798;28;20221;-70
2022/11/22 00:19:34;;;;;;;0.10;0.10;;;2.50;99.90;;;;;;1761499;28;20201;-70
2022/11/22 00:20:28;;;;;;;0.00;0.00;;;2.50;99.90;;;;;;1757060;28;20538;-69
2022/11/22 00:21:18;;;;;;;0.10;0.10;;;2.50;99.90;;;;;;1753089;28;20198;-70
2022/11/22 00:22:10;;;;;;;0.00;0.00;;;2.50;99.90;;;;;;1743002;28;20282;-70
2022/11/22 00:23:01;;;;;;;0.00;0.00;;;2.50;99.90;;;;;;1760620;28;20208;-70
2022/11/22 00:23:56;;;;;;;0.00;0.00;;;2.50;99.90;;;;;;1759215;28;20288;-70
2022/11/22 00:24:47;;;;;;;0.00;0.00;;;2.50;99.90;;;;;;1761341;28;20236;-70
2022/11/22 00:25:39;;;;;;;0.00;0.00;;;2.40;99.90;;;;;;1759535;28;20417;-70
2022/11/22 00:26:30;;;;;;;0.00;0.00;;;2.50;99.90;;;;;;1761526;28;20208;-70
2022/11/22 00:27:22;;;;;;;0.00;0.00;;;2.50;99.90;;;;;;1758283;28;20193;-70
2022/11/22 00:28:13;;;;;;;0.13;0.13;;;2.50;99.90;;;;;;1754449;28;20240;-69
2022/11/22 00:29:05;;;;;;;0.00;0.00;;;2.50;99.90;;;;;;1759278;28;20649;-69
2022/11/22 00:29:56;;;;;;;0.08;0.08;;;2.50;99.90;;;;;;1761027;28;20205;-69
2022/11/22 00:30:48;;;;;;;0.00;0.00;;;2.50;99.90;;;;;;1760026;28;20320;-69
2022/11/22 00:31:39;;;;;;;0.00;0.00;;;2.50;99.90;;;;;;1760343;28;20474;-70
2022/11/22 00:32:31;;;;;;;0.20;0.20;;;2.50;99.90;;;;;;1757400;28;20216;-69
2022/11/22 00:33:21;;;;;;;0.00;0.00;;;2.50;99.90;;;;;;1754330;28;20210;-69
2022/11/22 00:34:14;;;;;;;0.00;0.00;;;2.50;99.90;;;;;;1754263;28;20208;-69
2022/11/22 00:35:05;;;;;;;0.00;0.00;;;2.50;99.90;;;;;;1755171;28;20267;-69
2022/11/22 00:35:59;;;;;;;0.00;0.00;;;2.50;99.90;;;;;;1754469;28;20236;-69
2022/11/22 00:36:50;;;;;;;0.10;0.10;;;2.50;99.90;;;;;;1754412;28;20268;-69
2022/11/22 00:37:42;;;;;;;0.00;0.00;;;2.50;99.90;;;;;;1751023;28;20669;-69
2022/11/22 00:38:33;;;;;;;0.00;0.00;;;2.50;99.90;;;;;;1754570;28;20433;-70
2022/11/22 00:39:25;;;;;;;0.00;0.00;;;2.50;99.90;;;;;;1754269;28;20296;-69
2022/11/22 00:40:16;;;;;;;0.00;0.00;;;2.50;99.90;;;;;;1755708;28;20463;-69
2022/11/22 00:41:08;;;;;;;0.10;0.10;;;2.60;99.90;;;;;;1761201;28;20200;-70
2022/11/22 00:41:59;;;;;;;0.00;0.00;;;2.60;99.90;;;;;;1758281;28;20206;-69
2022/11/22 00:42:50;;;;;;;0.00;0.00;;;2.60;99.90;;;;;;1761256;28;20307;-70
2022/11/22 00:43:41;;;;;;;0.10;0.10;;;2.60;99.90;;;;;;1759397;28;20212;-69
2022/11/22 00:44:33;;;;;;;0.00;0.00;;;2.60;99.90;;;;;;1756038;28;20292;-69
2022/11/22 00:45:24;;;;;;;0.10;0.10;;;2.60;99.90;;;;;;1756532;28;20202;-70
2022/11/22 00:46:16;;;;;;;0.10;0.10;;;2.60;99.90;;;;;;1761376;28;20212;-69
2022/11/22 00:47:07;;;;;;;0.10;0.10;;;2.70;99.90;;;;;;1759187;28;20911;-69
2022/11/22 00:47:58;;;;;;;0.30;0.30;;;2.60;99.90;;;;;;1761079;28;20587;-69
2022/11/22 00:48:49;;;;;;;0.00;0.00;;;2.60;99.90;;;;;;1758958;28;20942;-70
2022/11/22 00:49:41;;;;;;;0.20;0.20;;;2.50;99.90;;;;;;1761153;28;20580;-69
2022/11/22 00:50:32;;;;;;;0.10;0.10;;;2.50;99.90;;;;;;1759460;28;20478;-69
2022/11/22 00:51:25;;;;;;;0.20;0.20;;;2.50;99.90;;;;;;1759429;28;20208;-69
2022/11/22 00:52:16;;;;;;;0.10;0.10;;;2.50;99.90;;;;;;1748478;28;20460;-69
2022/11/22 00:53:08;;;;;;;0.30;0.30;;;2.50;99.90;;;;;;1754336;28;20208;-69
2022/11/22 00:53:59;;;;;;;0.00;0.00;;;2.50;99.90;;;;;;1749574;28;20460;-69
2022/11/22 00:54:51;;;;;;;0.13;0.13;;;2.50;99.90;;;;;;1747539;28;20852;-69
2022/11/22 00:55:41;;;;;;;0.10;0.10;;;2.50;99.90;;;;;;1758479;28;20213;-69
2022/11/22 00:56:34;;;;;;;0.10;0.10;;;2.50;99.90;;;;;;1761188;28;20254;-69
2022/11/22 00:57:25;;;;;;;0.17;0.17;;;2.50;99.90;;;;;;1758774;28;20205;-69
2022/11/22 00:58:17;;;;;;;0.10;0.10;;;2.60;99.90;;;;;;1760689;28;20316;-69
2022/11/22 00:59:07;;;;;;;0.00;0.00;;;2.50;99.90;;;;;;1759460;28;20541;-69
2022/11/22 00:59:59;;;;;;;0.00;0.00;;;2.50;99.90;;;;;;1759992;28;20537;-69
2022/11/22 01:00:50;;;;;;;0.10;0.10;;;2.50;99.90;;;;;;1760782;28;20432;-68
2022/11/22 01:01:42;;;;;;;0.00;0.00;;;2.50;99.90;;;;;;1759710;28;20209;-69
2022/11/22 01:02:33;;;;;;;0.00;0.00;;;2.60;99.90;;;;;;1757150;28;20477;-69
2022/11/22 01:03:25;;;;;;;0.10;0.10;;;2.60;99.90;;;;;;1754723;28;20228;-69
2022/11/22 01:04:16;;;;;;;0.10;0.10;;;2.50;99.90;;;;;;1746554;28;20206;-69
2022/11/22 01:05:09;;;;;;;0.20;0.20;;;2.60;99.90;;;;;;1746017;28;20194;-69
2022/11/22 01:05:59;;;;;;;0.00;0.00;;;2.50;99.90;;;;;;1752086;28;20455;-68
2022/11/22 01:06:53;;;;;;;0.07;0.07;;;2.50;99.90;;;;;;1759244;28;20197;-70
2022/11/22 01:07:44;;;;;;;0.10;0.10;;;2.50;99.90;;;;;;1761137;28;20216;-69
2022/11/22 01:08:35;;;;;;;0.00;0.00;;;2.50;99.90;;;;;;1758274;28;20209;-69
2022/11/22 01:09:26;;;;;;;0.10;0.10;;;2.50;99.90;;;;;;1754317;28;20197;-69
2022/11/22 01:10:18;;;;;;;0.00;0.00;;;2.50;99.90;;;;;;1753746;28;20288;-69
2022/11/22 01:11:10;;;;;;;0.10;0.10;;;2.50;99.90;;;;;;1754259;28;20529;-69
2022/11/22 01:12:02;;;;;;;0.10;0.10;;;2.50;99.90;;;;;;1755495;28;20201;-70
2022/11/22 01:12:52;;;;;;;0.00;0.00;;;2.50;99.90;;;;;;1761129;28;20633;-70
2022/11/22 01:13:44;;;;;;;0.00;0.00;;;2.50;99.90;;;;;;1758754;28;20561;-70
2022/11/22 01:14:35;;;;;;;0.10;0.10;;;2.60;99.90;;;;;;1760928;28;20490;-70
2022/11/22 01:15:27;;;;;;;0.20;0.20;;;2.50;99.90;;;;;;1759570;28;20197;-70
2022/11/22 01:16:18;;;;;;;0.10;0.10;;;2.50;99.90;;;;;;1760952;28;20201;-69
2022/11/22 01:17:10;;;;;;;0.00;0.00;;;2.60;99.90;;;;;;1758700;28;20226;-70
2022/11/22 01:18:01;;;;;;;0.00;0.00;;;2.60;99.90;;;;;;1761105;28;20947;-69
2022/11/22 01:18:52;;;;;;;0.00;0.00;;;2.60;99.90;;;;;;1759095;28;20526;-69
2022/11/22 01:19:43;;;;;;;0.10;0.10;;;2.60;99.90;;;;;;1761083;28;20490;-69
2022/11/22 01:20:35;;;;;;;0.00;0.00;;;2.60;99.90;;;;;;1758913;28;20212;-69
2022/11/22 01:21:26;;;;;;;0.00;0.00;;;2.60;99.90;;;;;;1758676;28;20205;-69
2022/11/22 01:22:20;;;;;;;0.10;0.10;;;2.60;99.90;;;;;;1744824;28;20294;-70
2022/11/22 01:23:11;;;;;;;0.03;0.03;;;2.60;99.90;;;;;;1760143;28;20470;-70
2022/11/22 01:24:02;;;;;;;0.00;0.00;;;2.50;99.90;;;;;;1754009;28;20650;-70
2022/11/22 01:24:53;;;;;;;0.10;0.10;;;2.50;99.90;;;;;;1753928;28;20465;-70
2022/11/22 01:25:45;;;;;;;0.00;0.00;;;2.50;99.90;;;;;;1759014;28;20204;-70
2022/11/22 01:26:36;;;;;;;0.40;0.40;;;2.50;99.90;;;;;;1760622;28;20205;-69
2022/11/22 01:27:28;;;;;;;0.15;0.15;;;2.50;99.90;;;;;;1759046;28;20538;-69
2022/11/22 01:28:19;;;;;;;0.20;0.20;;;2.50;99.90;;;;;;1760116;28;20201;-69
2022/11/22 01:29:11;;;;;;;0.13;0.13;;;2.60;99.90;;;;;;1759875;28;20644;-69
2022/11/22 01:30:06;;;;;;;0.00;0.00;;;2.50;99.90;;;;;;1759635;28;20200;-69
2022/11/22 01:30:57;;;;;;;0.20;0.20;;;2.50;99.90;;;;;;1750157;28;20558;-70
2022/11/22 01:31:48;;;;;;;0.10;0.10;;;2.50;99.90;;;;;;1753158;28;20209;-70
2022/11/22 01:32:40;;;;;;;0.10;0.10;;;2.50;99.90;;;;;;1753734;28;20215;-70
2022/11/22 01:33:30;;;;;;;0.00;0.00;;;2.60;99.90;;;;;;1753955;28;20648;-70
2022/11/22 01:34:22;;;;;;;0.00;0.00;;;2.60;99.90;;;;;;1754057;28;20197;-70
2022/11/22 01:35:13;;;;;;;0.00;0.00;;;2.60;99.90;;;;;;1755622;28;20282;-70
2022/11/22 01:36:05;;;;;;;0.00;0.00;;;2.60;99.90;;;;;;1760686;28;20411;-70
2022/11/22 01:36:56;;;;;;;0.00;0.00;;;2.60;99.90;;;;;;1757813;28;20498;-70
2022/11/22 01:37:49;;;;;;;0.00;0.00;;;2.60;99.90;;;;;;1753736;28;20205;-69
2022/11/22 01:38:39;;;;;;;0.10;0.10;;;2.60;99.90;;;;;;1755421;28;20205;-70
2022/11/22 01:39:31;;;;;;;0.00;0.00;;;2.60;99.90;;;;;;1760801;28;20197;-69
2022/11/22 01:40:22;;;;;;;0.00;0.00;;;2.70;99.90;;;;;;1759094;28;20228;-70
2022/11/22 01:41:14;;;;;;;0.10;0.10;;;2.70;99.90;;;;;;1761006;28;20203;-69
2022/11/22 01:42:05;;;;;;;0.10;0.10;;;2.70;99.90;;;;;;1758554;28;20563;-70
2022/11/22 01:42:58;;;;;;;0.00;0.00;;;2.60;99.90;;;;;;1761154;28;20204;-70
2022/11/22 01:43:49;;;;;;;0.00;0.00;;;2.60;99.90;;;;;;1755459;28;20936;-70
2022/11/22 01:44:43;;;;;;;0.00;0.00;;;2.70;99.90;;;;;;1754133;28;20631;-70
2022/11/22 01:45:42;;;;;;;0.10;0.10;;;2.70;99.90;;;;;;1753917;28;20460;-69
2022/11/22 01:46:37;;;;;;;0.10;0.10;;;2.70;99.90;;;;;;1760881;28;20216;-69
2022/11/22 01:47:28;;;;;;;0.10;0.10;;;2.70;99.90;;;;;;1755898;28;20194;-69
2022/11/22 01:48:37;;;;;;;0.20;0.20;;;2.70;99.90;;;;;;1759800;28;20276;-69
2022/11/22 01:49:32;;;;;;;0.13;0.13;;;2.80;99.90;;;;;;1754002;28;20214;-69
2022/11/22 01:50:25;;;;;;;0.00;0.00;;;2.80;99.90;;;;;;1753773;28;20202;-69
2022/11/22 01:51:23;;;;;;;0.10;0.10;;;2.70;99.90;;;;;;1758993;28;20196;-69
2022/11/22 01:52:18;;;;;;;0.17;0.17;;;2.80;99.90;;;;;;1746819;28;20352;-69
2022/11/22 01:53:16;;;;;;;0.03;0.03;;;2.70;99.90;;;;;;1760751;28;20523;-69
2022/11/22 01:54:12;;;;;;;0.10;0.10;;;2.80;99.90;;;;;;1756952;28;20603;-69
2022/11/22 01:55:07;;;;;;;0.10;0.10;;;2.70;99.90;;;;;;1761008;28;20308;-69
2022/11/22 01:56:01;;;;;;;0.00;0.00;;;2.70;99.90;;;;;;1747899;28;20213;-69
2022/11/22 01:56:55;;;;;;;0.08;0.08;;;2.80;99.90;;;;;;1753409;28;20574;-70
2022/11/22 01:57:47;;;;;;;0.15;0.15;;;2.70;99.90;;;;;;1758091;28;20232;-69
2022/11/22 01:58:42;;;;;;;0.10;0.10;;;2.70;99.90;;;;;;1761665;28;20236;-69
2022/11/22 01:59:37;;;;;;;0.00;0.00;;;2.80;99.90;;;;;;1756875;28;20213;-69
2022/11/22 02:00:28;;;;;;;0.10;0.10;;;2.80;99.90;;;;;;1757146;28;20213;-69
2022/11/22 02:01:20;;;;;;;0.00;0.00;;;2.80;99.90;;;;;;1756057;28;20208;-69
2022/11/22 02:02:12;;;;;;;0.10;0.10;;;2.80;99.90;;;;;;1757079;28;20471;-69
2022/11/22 02:03:07;;;;;;;0.10;0.10;;;2.80;99.90;;;;;;1761846;28;20189;-69
2022/11/22 02:03:59;;;;;;;0.00;0.00;;;2.90;99.90;;;;;;1760234;28;20574;-69
2022/11/22 02:04:57;;;;;;;0.00;0.00;;;2.80;99.90;;;;;;1758739;28;20193;-69
2022/11/22 02:05:49;;;;;;;0.10;0.10;;;2.90;99.90;;;;;;1758656;28;20205;-69
2022/11/22 02:06:48;;;;;;;0.15;0.15;;;2.90;99.90;;;;;;1761996;28;20499;-69
2022/11/22 02:07:46;;;;;;;0.00;0.00;;;2.90;99.90;;;;;;1758228;28;20528;-69
2022/11/22 02:08:43;;;;;;;0.10;0.10;;;2.80;99.90;;;;;;1755237;28;20189;-69
2022/11/22 02:09:35;;;;;;;0.00;0.00;;;2.80;99.90;;;;;;1756738;28;20193;-69
2022/11/22 02:10:29;;;;;;;0.00;0.00;;;2.90;99.90;;;;;;1757330;28;20198;-69
2022/11/22 02:11:21;;;;;;;0.05;0.05;;;2.80;99.90;;;;;;1755535;28;20201;-69
2022/11/22 02:12:15;;;;;;;0.00;0.00;;;2.80;99.90;;;;;;1757230;28;20535;-69
2022/11/22 02:13:06;;;;;;;0.10;0.10;;;2.80;99.90;;;;;;1754952;28;20586;-70
2022/11/22 02:13:59;;;;;;;0.00;0.00;;;2.90;99.90;;;;;;1756133;28;20205;-69
2022/11/22 02:14:50;;;;;;;0.10;0.10;;;2.90;99.90;;;;;;1762473;28;20209;-69
2022/11/22 02:15:43;;;;;;;0.10;0.10;;;2.90;99.90;;;;;;1760814;28;20247;-69
2022/11/22 02:16:34;;;;;;;0.10;0.10;;;2.90;99.90;;;;;;1755059;28;20221;-69
2022/11/22 02:17:27;;;;;;;0.00;0.00;;;2.90;99.90;;;;;;1757290;28;20236;-69
2022/11/22 02:18:18;;;;;;;0.10;0.10;;;2.90;99.90;;;;;;1761836;28;20216;-69
2022/11/22 02:19:16;;;;;;;0.00;0.00;;;2.90;99.90;;;;;;1759809;28;20212;-69
2022/11/22 02:20:08;;;;;;;0.05;0.05;;;2.90;99.90;;;;;;1755354;28;20448;-69
2022/11/22 02:21:00;;;;;;;0.10;0.10;;;2.90;99.90;;;;;;1758520;28;20198;-69
2022/11/22 02:21:56;;;;;;;0.00;0.00;;;2.90;99.90;;;;;;1754755;28;20265;-69
2022/11/22 02:22:55;;;;;;;0.13;0.13;;;2.90;99.90;;;;;;1754804;28;20874;-69
2022/11/22 02:23:55;;;;;;;0.00;0.00;;;2.90;99.90;;;;;;1756196;28;20209;-69
2022/11/22 02:24:53;;;;;;;0.00;0.00;;;2.90;99.90;;;;;;1755383;28;20663;-69
2022/11/22 02:25:51;;;;;;;0.00;0.00;;;2.90;99.90;;;;;;1757371;28;20539;-70
2022/11/22 02:26:43;;;;;;;0.00;0.00;;;2.90;99.90;;;;;;1761873;28;20679;-69
2022/11/22 02:27:34;;;;;;;0.08;0.08;;;2.90;99.90;;;;;;1759048;28;20379;-69
2022/11/22 02:28:28;;;;;;;0.10;0.10;;;2.90;99.90;;;;;;1754651;28;20201;-69
2022/11/22 02:29:20;;;;;;;0.00;0.00;;;3.00;99.90;;;;;;1758185;28;20503;-69
2022/11/22 02:30:13;;;;;;;0.00;0.00;;;3.00;99.90;;;;;;1754798;28;20198;-69
2022/11/22 02:31:04;;;;;;;0.00;0.00;;;3.00;99.90;;;;;;1755254;28;20202;-69
2022/11/22 02:31:56;;;;;;;0.00;0.00;;;3.00;99.90;;;;;;1754625;28;20209;-69
2022/11/22 02:32:47;;;;;;;0.10;0.10;;;3.00;99.90;;;;;;1758730;28;20221;-69
2022/11/22 02:33:38;;;;;;;0.10;0.10;;;3.00;99.90;;;;;;1755992;28;20212;-69
2022/11/22 02:34:40;;;;;;;0.10;0.10;;;3.00;99.90;;;;;;1761878;28;20473;-69
2022/11/22 02:35:32;;;;;;;0.10;0.10;;;3.00;99.90;;;;;;1762260;28;20246;-70
2022/11/22 02:36:23;;;;;;;0.00;0.00;;;3.00;99.90;;;;;;1762149;28;20216;-70
2022/11/22 02:37:20;;;;;;;0.10;0.10;;;3.10;99.90;;;;;;1759160;28;20463;-70
2022/11/22 02:38:15;;;;;;;0.10;0.10;;;3.10;99.90;;;;;;1755080;28;20475;-69
2022/11/22 02:39:09;;;;;;;0.10;0.10;;;3.10;99.90;;;;;;1757757;28;20628;-70
2022/11/22 02:40:06;;;;;;;0.10;0.10;;;3.10;99.90;;;;;;1754882;28;20205;-70
2022/11/22 02:41:03;;;;;;;0.00;0.00;;;3.10;99.90;;;;;;1758230;28;20193;-69
2022/11/22 02:41:55;;;;;;;0.10;0.10;;;3.10;99.90;;;;;;1754597;28;20418;-69
2022/11/22 02:42:50;;;;;;;0.00;0.00;;;3.10;99.90;;;;;;1757366;28;20229;-69
2022/11/22 02:43:45;;;;;;;0.00;0.00;;;3.10;99.90;;;;;;1756039;28;20202;-69
2022/11/22 02:44:37;;;;;;;0.00;0.00;;;3.10;99.90;;;;;;1756027;28;20588;-69
2022/11/22 02:45:28;;;;;;;0.10;0.10;;;3.10;99.90;;;;;;1756948;28;20198;-69
2022/11/22 02:46:20;;;;;;;0.00;0.00;;;3.10;99.90;;;;;;1755665;28;20258;-69
2022/11/22 02:47:12;;;;;;;0.10;0.10;;;3.10;99.90;;;;;;1757142;28;20474;-69
2022/11/22 02:48:06;;;;;;;0.00;0.00;;;3.10;99.90;;;;;;1755128;28;20201;-69
2022/11/22 02:48:58;;;;;;;0.00;0.00;;;3.10;99.90;;;;;;1758599;28;20212;-69
2022/11/22 02:49:51;;;;;;;0.10;0.10;;;3.10;99.90;;;;;;1761988;28;20666;-69
2022/11/22 02:50:43;;;;;;;0.00;0.00;;;3.10;99.90;;;;;;1757142;28;20205;-69
2022/11/22 02:51:35;;;;;;;0.10;0.10;;;3.10;99.90;;;;;;1754806;28;20206;-70
2022/11/22 02:52:27;;;;;;;0.10;0.10;;;3.10;99.90;;;;;;1759556;28;20287;-70
2022/11/22 02:53:18;;;;;;;0.20;0.20;;;3.10;99.90;;;;;;1761911;28;20216;-70
2022/11/22 02:54:10;;;;;;;0.10;0.10;;;3.10;99.90;;;;;;1761746;28;20280;-70
2022/11/22 02:55:00;;;;;;;0.00;0.00;;;3.10;99.90;;;;;;1760542;28;20201;-69
2022/11/22 02:55:52;;;;;;;0.00;0.00;;;3.10;99.90;;;;;;1760065;28;20224;-70
2022/11/22 02:56:45;;;;;;;0.00;0.00;;;3.10;99.90;;;;;;1754922;28;20319;-69
2022/11/22 02:57:36;;;;;;;0.10;0.10;;;3.10;99.90;;;;;;1754939;28;20604;-69
2022/11/22 02:58:27;;;;;;;0.10;0.10;;;3.10;99.90;;;;;;1755649;28;20182;-70
2022/11/22 02:59:19;;;;;;;0.03;0.03;;;3.10;99.90;;;;;;1758173;28;20295;-69
2022/11/22 03:00:11;;;;;;;0.10;0.10;;;3.20;99.90;;;;;;1761456;28;20498;-69
2022/11/22 03:01:03;;;;;;;0.00;0.00;;;3.10;99.90;;;;;;1754772;28;20194;-69
2022/11/22 03:01:54;;;;;;;0.08;0.08;;;3.10;99.90;;;;;;1755307;28;20242;-69
2022/11/22 03:02:46;;;;;;;0.00;0.00;;;3.10;99.90;;;;;;1756190;28;21233;-69
2022/11/22 03:03:37;;;;;;;0.00;0.00;;;3.20;99.90;;;;;;1755887;28;20232;-69
2022/11/22 03:04:29;;;;;;;0.00;0.00;;;3.20;99.90;;;;;;1757418;28;20193;-70
2022/11/22 03:05:20;;;;;;;0.15;0.15;;;3.20;99.90;;;;;;1754824;28;20515;-69
2022/11/22 03:06:12;;;;;;;0.20;0.20;;;3.20;99.90;;;;;;1760175;28;20264;-69
2022/11/22 03:07:03;;;;;;;0.10;0.10;;;3.20;99.90;;;;;;1761344;28;21104;-69
2022/11/22 03:07:55;;;;;;;0.10;0.10;;;3.20;99.90;;;;;;1756241;28;20646;-69
2022/11/22 03:08:47;;;;;;;0.10;0.10;;;3.20;99.90;;;;;;1756300;28;20475;-69
2022/11/22 03:09:39;;;;;;;0.00;0.00;;;3.20;99.90;;;;;;1755750;28;20627;-69
2022/11/22 03:10:30;;;;;;;0.00;0.00;;;3.20;99.90;;;;;;1756676;28;20213;-69
2022/11/22 03:11:22;;;;;;;0.00;0.00;;;3.20;99.90;;;;;;1755422;28;20305;-70
2022/11/22 03:12:14;;;;;;;0.00;0.00;;;3.30;99.90;;;;;;1756912;28;20213;-70
2022/11/22 03:13:06;;;;;;;0.10;0.10;;;3.30;99.90;;;;;;1755116;28;20546;-70
2022/11/22 03:13:57;;;;;;;0.08;0.08;;;3.30;99.90;;;;;;1755540;28;20212;-70
2022/11/22 03:14:49;;;;;;;0.00;0.00;;;3.30;99.90;;;;;;1762025;28;20210;-69
2022/11/22 03:15:40;;;;;;;0.00;0.00;;;3.40;99.90;;;;;;1760644;28;20453;-70
2022/11/22 03:16:31;;;;;;;0.00;0.00;;;3.40;99.90;;;;;;1755093;28;20297;-70
2022/11/22 03:17:22;;;;;;;0.00;0.00;;;3.50;99.90;;;;;;1757257;28;20980;-70
2022/11/22 03:18:14;;;;;;;0.00;0.00;;;3.50;99.90;;;;;;1754692;28;20585;-70
2022/11/22 03:19:05;;;;;;;0.00;0.00;;;3.50;99.90;;;;;;1756789;28;20947;-70
2022/11/22 03:19:56;;;;;;;0.00;0.00;;;3.60;99.90;;;;;;1761574;28;20526;-70
2022/11/22 03:20:47;;;;;;;0.00;0.00;;;3.60;99.90;;;;;;1759746;28;20553;-70
2022/11/22 03:21:40;;;;;;;0.00;0.00;;;3.60;99.90;;;;;;1754862;28;20611;-70
2022/11/22 03:22:31;;;;;;;0.00;0.00;;;3.60;99.90;;;;;;1757892;28;20947;-70
2022/11/22 03:23:23;;;;;;;0.20;0.20;;;3.70;99.90;;;;;;1761486;28;20537;-69
2022/11/22 03:24:14;;;;;;;0.00;0.00;;;3.70;99.90;;;;;;1757484;28;20312;-70
2022/11/22 03:25:07;;;;;;;0.00;0.00;;;3.70;99.90;;;;;;1754679;28;20250;-70
2022/11/22 03:25:58;;;;;;;0.00;0.00;;;3.80;99.90;;;;;;1757256;28;20205;-70
2022/11/22 03:26:50;;;;;;;0.00;0.00;;;3.80;99.90;;;;;;1754778;28;20198;-70
2022/11/22 03:27:42;;;;;;;0.00;0.00;;;3.80;99.90;;;;;;1757935;27;20631;-70
2022/11/22 03:28:34;;;;;;;0.00;0.00;;;3.80;99.90;;;;;;1754117;28;20508;-70
2022/11/22 03:29:25;;;;;;;0.00;0.00;;;3.90;99.90;;;;;;1757456;28;20210;-70
2022/11/22 03:30:17;;;;;;;0.00;0.00;;;3.90;99.90;;;;;;1754903;28;20227;-69
2022/11/22 03:31:08;;;;;;;0.00;0.00;;;3.90;99.90;;;;;;1757001;28;20256;-69
2022/11/22 03:32:00;;;;;;;0.13;0.13;;;4.00;99.90;;;;;;1754438;28;20271;-70
2022/11/22 03:32:51;;;;;;;0.10;0.10;;;4.00;99.90;;;;;;1755904;28;20463;-70
2022/11/22 03:33:42;;;;;;;0.00;0.00;;;4.00;99.90;;;;;;1756474;28;20237;-69
2022/11/22 03:34:33;;;;;;;0.00;0.00;;;4.00;99.90;;;;;;1760348;28;20240;-70
2022/11/22 03:35:25;;;;;;;0.08;0.08;;;4.00;99.90;;;;;;1755757;28;20225;-69
2022/11/22 03:36:16;;;;;;;0.00;0.00;;;4.10;99.90;;;;;;1760304;28;20207;-69
2022/11/22 03:37:08;;;;;;;0.00;0.00;;;4.10;99.90;;;;;;1760920;28;20201;-69
2022/11/22 03:37:59;;;;;;;0.10;0.10;;;4.10;99.90;;;;;;1755166;28;20801;-69
2022/11/22 03:38:51;;;;;;;0.00;0.00;;;4.10;99.90;;;;;;1756411;28;20538;-69
2022/11/22 03:39:42;;;;;;;0.10;0.10;;;4.10;99.90;;;;;;1755028;28;20463;-70
2022/11/22 03:40:34;;;;;;;0.10;0.10;;;4.10;99.90;;;;;;1756955;28;20205;-69
2022/11/22 03:41:25;;;;;;;0.00;0.00;;;4.10;99.90;;;;;;1754794;28;20216;-69
2022/11/22 03:42:17;;;;;;;0.10;0.10;;;4.10;99.90;;;;;;1754460;28;20281;-69
2022/11/22 03:43:09;;;;;;;0.00;0.00;;;4.10;99.90;;;;;;1761477;28;20216;-70
2022/11/22 03:44:01;;;;;;;0.10;0.10;;;4.10;99.90;;;;;;1760290;28;20233;-70
2022/11/22 03:44:52;;;;;;;0.10;0.10;;;4.10;99.90;;;;;;1754482;28;20296;-70
2022/11/22 03:45:45;;;;;;;0.00;0.00;;;4.10;99.90;;;;;;1757298;28;20662;-70
2022/11/22 03:46:36;;;;;;;0.15;0.15;;;4.10;99.90;;;;;;1754261;28;20459;-69
2022/11/22 03:47:28;;;;;;;0.00;0.00;;;4.10;99.90;;;;;;1758711;28;20188;-69
2022/11/22 03:48:19;;;;;;;0.00;0.00;;;4.10;99.90;;;;;;1760832;28;20557;-69
2022/11/22 03:49:11;;;;;;;0.00;0.00;;;4.20;99.90;;;;;;1757082;28;20197;-69
2022/11/22 03:50:06;;;;;;;0.00;0.00;;;4.20;99.90;;;;;;1761425;28;20292;-69
2022/11/22 03:51:03;;;;;;;0.00;0.00;;;4.20;99.90;;;;;;1758117;28;20267;-69
2022/11/22 03:51:54;;;;;;;0.00;0.00;;;4.20;99.90;;;;;;1754421;28;20230;-69
2022/11/22 03:52:46;;;;;;;0.00;0.00;;;4.20;99.90;;;;;;1756910;28;20217;-69
2022/11/22 03:53:37;;;;;;;0.00;0.00;;;4.20;99.90;;;;;;1754471;28;20250;-69
2022/11/22 03:54:29;;;;;;;0.00;0.00;;;4.20;99.90;;;;;;1757027;28;20201;-69
2022/11/22 03:55:20;;;;;;;0.00;0.00;;;4.20;99.90;;;;;;1755389;28;20205;-69
2022/11/22 03:56:12;;;;;;;0.10;0.10;;;4.30;99.90;;;;;;1756502;28;20224;-69
2022/11/22 03:57:03;;;;;;;0.10;0.10;;;4.30;99.90;;;;;;1755317;28;20528;-70
2022/11/22 03:57:55;;;;;;;0.00;0.00;;;4.30;99.90;;;;;;1755452;28;20252;-69
2022/11/22 03:58:47;;;;;;;0.00;0.00;;;4.30;99.90;;;;;;1759288;27;20204;-69
2022/11/22 03:59:39;;;;;;;0.00;0.00;;;4.30;99.90;;;;;;1761429;28;20262;-69
2022/11/22 04:00:30;;;;;;;0.00;0.00;;;4.30;99.90;;;;;;1761156;28;20208;-69
2022/11/22 04:01:22;;;;;;;0.00;0.00;;;4.30;99.90;;;;;;1761362;28;20201;-69
2022/11/22 04:02:13;;;;;;;0.00;0.00;;;4.30;99.90;;;;;;1760304;28;20204;-70
2022/11/22 04:03:05;;;;;;;0.00;0.00;;;4.30;99.90;;;;;;1760769;28;20201;-69
2022/11/22 04:03:56;;;;;;;0.10;0.10;;;4.30;99.90;;;;;;1760258;28;20772;-70
2022/11/22 04:04:47;;;;;;;0.10;0.10;;;4.30;99.90;;;;;;1761405;28;20193;-69
2022/11/22 04:05:38;;;;;;;0.00;0.00;;;4.30;99.90;;;;;;1760537;28;20450;-70
2022/11/22 04:06:30;;;;;;;0.10;0.10;;;4.30;99.90;;;;;;1754695;28;20281;-69
2022/11/22 04:07:22;;;;;;;0.00;0.00;;;4.30;99.90;;;;;;1759271;28;20504;-70
2022/11/22 04:08:14;;;;;;;0.08;0.08;;;4.30;99.90;;;;;;1754273;28;20259;-69
2022/11/22 04:09:05;;;;;;;0.10;0.10;;;4.30;99.90;;;;;;1761283;27;20201;-69
2022/11/22 04:09:57;;;;;;;0.00;0.00;;;4.30;99.90;;;;;;1761307;28;20201;-69
2022/11/22 04:10:48;;;;;;;0.13;0.13;;;4.30;99.90;;;;;;1759564;28;20220;-69
2022/11/22 04:11:40;;;;;;;0.10;0.10;;;4.30;99.90;;;;;;1754813;28;20257;-70
2022/11/22 04:12:31;;;;;;;0.05;0.05;;;4.30;99.90;;;;;;1758790;28;20595;-70
2022/11/22 04:15:05;;;;;;;0.00;0.00;;;4.30;99.90;;;;;;1756631;28;20220;-69
2022/11/22 04:15:46;;;;;;;0.00;0.00;;;4.30;99.90;;;;;;1760954;28;20277;-70
2022/11/22 04:16:37;;;;;;;0.10;0.10;;;4.30;99.90;;;;;;1754383;28;20239;-70
2022/11/22 04:17:43;;;;;;;0.00;0.00;;;4.40;99.90;;;;;;1759044;28;20520;-70
2022/11/22 04:18:34;;;;;;;0.00;0.00;;;4.40;99.90;;;;;;1755831;28;20301;-70
2022/11/22 04:19:25;;;;;;;0.00;0.00;;;4.30;99.90;;;;;;1757294;28;20511;-70
2022/11/22 04:21:33;;;;;;;0.00;0.00;;;4.20;99.90;;;;;;1760717;28;20238;-69
2022/11/22 04:22:24;;;;;;;0.00;0.00;;;4.20;99.90;;;;;;1757182;28;20544;-69
2022/11/22 04:23:17;;;;;;;0.20;0.20;;;4.20;99.90;;;;;;1754289;28;20910;-69
2022/11/22 04:25:19;;;;;;;0.10;0.10;;;4.30;99.90;;;;;;1761346;28;20200;-69
2022/11/22 04:26:10;;;;;;;0.00;0.00;;;4.40;99.90;;;;;;1761272;28;20203;-70
2022/11/22 04:27:02;;;;;;;0.10;0.10;;;4.40;99.90;;;;;;1760805;28;20610;-70
2022/11/22 04:27:53;;;;;;;0.00;0.00;;;4.40;99.90;;;;;;1761288;28;20244;-70
2022/11/22 04:28:44;;;;;;;0.00;0.00;;;4.30;99.90;;;;;;1760545;28;20204;-70
2022/11/22 04:29:36;;;;;;;0.03;0.03;;;4.30;99.90;;;;;;1761140;28;20645;-70
2022/11/22 04:32:46;;;;;;;0.00;0.00;;;4.40;99.90;;;;;;1755179;28;20208;-70
2022/11/22 04:33:37;;;;;;;0.10;0.10;;;4.40;99.90;;;;;;1756381;28;20229;-70
2022/11/22 04:34:28;;;;;;;0.10;0.10;;;4.40;99.90;;;;;;1761012;28;20204;-70
2022/11/22 04:35:19;;;;;;;0.00;0.00;;;4.40;99.90;;;;;;1760719;28;20298;-70
2022/11/22 04:36:10;;;;;;;0.00;0.00;;;4.40;99.90;;;;;;1756408;28;20229;-69
2022/11/22 04:37:02;;;;;;;0.00;0.00;;;4.40;99.90;;;;;;1755977;28;20196;-69
2022/11/22 04:37:53;;;;;;;0.00;0.00;;;4.40;99.90;;;;;;1760618;28;20287;-69
2022/11/22 04:38:44;;;;;;;0.00;0.00;;;4.50;99.90;;;;;;1760638;28;20239;-69
2022/11/22 04:39:36;;;;;;;0.10;0.10;;;4.50;99.90;;;;;;1760707;28;20197;-69
2022/11/22 04:40:27;;;;;;;0.00;0.00;;;4.40;99.90;;;;;;1759302;28;20247;-69
2022/11/22 04:41:18;;;;;;;0.00;0.00;;;4.50;99.90;;;;;;1754978;28;20201;-70
2022/11/22 04:45:37;;;;;;;0.00;0.00;;;4.50;99.90;;;;;;1754913;28;20197;-70